createdAt,value
2018-01-29T00:01:31.006Z,9.20
2018-01-29T00:03:58.554Z,9.20
2018-01-29T00:06:26.836Z,9.20
2018-01-29T00:08:55.132Z,9.20
2018-01-29T00:11:22.640Z,9.20
2018-01-29T00:13:50.147Z,9.20
2018-01-29T00:16:17.800Z,9.20
2018-01-29T00:18:45.396Z,9.20
2018-01-29T00:21:13.156Z,9.20
2018-01-29T00:23:40.948Z,9.20
2018-01-29T00:26:08.748Z,9.20
2018-01-29T00:28:36.309Z,9.20
2018-01-29T00:31:05.508Z,9.20
2018-01-29T00:33:34.027Z,9.20
2018-01-29T00:36:02.202Z,9.20
2018-01-29T00:38:29.965Z,9.30
2018-01-29T00:40:57.481Z,9.30
2018-01-29T00:43:24.988Z,9.30
2018-01-29T00:45:52.535Z,9.40
2018-01-29T00:48:20.040Z,9.40
2018-01-29T00:50:47.808Z,9.40
2018-01-29T00:53:16.675Z,9.50
2018-01-29T00:55:44.748Z,9.50
2018-01-29T00:58:13.023Z,9.50
2018-01-29T01:00:41.136Z,9.50
2018-01-29T01:03:09.574Z,9.50
2018-01-29T01:05:39.280Z,9.50
2018-01-29T01:08:06.842Z,9.50
2018-01-29T01:10:36.298Z,9.60
2018-01-29T01:13:05.075Z,9.60
2018-01-29T01:15:33.675Z,9.60
2018-01-29T01:18:01.889Z,9.60
2018-01-29T01:20:29.429Z,9.60
2018-01-29T01:22:58.068Z,9.70
2018-01-29T01:25:25.693Z,9.70
2018-01-29T01:27:53.253Z,9.60
2018-01-29T01:30:21.118Z,9.60
2018-01-29T01:32:48.819Z,9.60
2018-01-29T01:35:17.057Z,9.60
2018-01-29T01:37:45.304Z,9.60
2018-01-29T01:40:13.521Z,9.60
2018-01-29T01:42:41.705Z,9.70
2018-01-29T01:45:09.619Z,9.70
2018-01-29T01:47:37.936Z,9.60
2018-01-29T01:50:05.452Z,9.60
2018-01-29T01:52:33.784Z,9.60
2018-01-29T01:55:01.787Z,9.60
2018-01-29T01:57:30.081Z,9.60
2018-01-29T01:59:58.095Z,9.60
2018-01-29T02:02:25.608Z,9.60
2018-01-29T02:04:53.886Z,9.60
2018-01-29T02:07:22.173Z,9.60
2018-01-29T02:09:50.463Z,9.60
2018-01-29T02:12:18.716Z,9.60
2018-01-29T02:14:47.556Z,9.50
2018-01-29T02:17:15.510Z,9.50
2018-01-29T02:19:44.291Z,9.50
2018-01-29T02:22:12.488Z,9.60
2018-01-29T02:24:40.459Z,9.60
2018-01-29T02:27:08.515Z,9.50
2018-01-29T02:29:36.997Z,9.50
2018-01-29T02:32:05.005Z,9.50
2018-01-29T02:34:33.101Z,9.50
2018-01-29T02:37:00.699Z,9.50
2018-01-29T02:39:28.236Z,9.50
2018-01-29T02:41:56.535Z,9.50
2018-01-29T02:44:24.040Z,9.50
2018-01-29T02:46:53.065Z,9.40
2018-01-29T02:49:21.836Z,9.50
2018-01-29T02:51:49.849Z,9.40
2018-01-29T02:54:17.484Z,9.50
2018-01-29T02:56:46.292Z,9.50
2018-01-29T02:59:13.965Z,9.50
2018-01-29T03:01:42.288Z,9.50
2018-01-29T03:04:11.712Z,9.40
2018-01-29T03:06:40.448Z,9.50
2018-01-29T03:09:09.635Z,9.50
2018-01-29T03:11:38.732Z,9.50
2018-01-29T03:14:06.620Z,9.50
2018-01-29T03:16:35.880Z,9.50
2018-01-29T03:19:04.070Z,9.50
2018-01-29T03:21:32.063Z,9.50
2018-01-29T03:23:59.702Z,9.40
2018-01-29T03:26:27.582Z,9.50
2018-01-29T03:28:55.090Z,9.50
2018-01-29T03:31:23.397Z,9.50
2018-01-29T03:33:50.927Z,9.50
2018-01-29T03:36:19.599Z,9.50
2018-01-29T03:38:47.304Z,9.50
2018-01-29T03:41:15.281Z,9.40
2018-01-29T03:43:44.009Z,9.50
2018-01-29T03:46:12.448Z,9.50
2018-01-29T03:48:40.832Z,9.50
2018-01-29T03:51:10.334Z,9.40
2018-01-29T03:53:39.419Z,9.40
2018-01-29T03:56:07.196Z,9.40
2018-01-29T03:58:35.172Z,9.50
2018-01-29T04:01:03.053Z,9.50
2018-01-29T04:03:30.681Z,9.50
2018-01-29T04:05:58.272Z,9.50
2018-01-29T04:08:25.795Z,9.50
2018-01-29T04:10:54.416Z,9.60
2018-01-29T04:13:22.149Z,9.50
2018-01-29T04:15:50.421Z,9.60
2018-01-29T04:18:19.028Z,9.50
2018-01-29T04:20:46.593Z,9.50
2018-01-29T04:23:14.557Z,9.50
2018-01-29T04:25:42.653Z,9.60
2018-01-29T04:28:10.929Z,9.60
2018-01-29T04:30:40.696Z,9.60
2018-01-29T04:33:08.556Z,9.60
2018-01-29T04:35:36.125Z,9.60
2018-01-29T04:38:05.040Z,9.60
2018-01-29T04:40:33.281Z,9.60
2018-01-29T04:43:01.228Z,9.60
2018-01-29T04:45:29.545Z,9.60
2018-01-29T04:47:57.069Z,9.60
2018-01-29T04:50:24.596Z,9.60
2018-01-29T04:52:52.108Z,9.60
2018-01-29T04:55:20.384Z,9.60
2018-01-29T04:57:48.660Z,9.60
2018-01-29T05:00:17.303Z,9.60
2018-01-29T05:02:46.077Z,9.70
2018-01-29T05:05:14.148Z,9.70
2018-01-29T05:07:42.873Z,9.70
2018-01-29T05:10:11.088Z,9.70
2018-01-29T05:12:39.481Z,9.70
2018-01-29T05:15:08.648Z,9.70
2018-01-29T05:17:36.924Z,9.70
2018-01-29T05:20:06.053Z,9.70
2018-01-29T05:22:33.807Z,9.60
2018-01-29T05:25:01.891Z,9.70
2018-01-29T05:27:29.446Z,9.70
2018-01-29T05:29:57.244Z,9.70
2018-01-29T05:32:25.091Z,9.60
2018-01-29T05:34:55.283Z,9.60
2018-01-29T05:37:24.344Z,9.60
2018-01-29T05:39:51.982Z,9.60
2018-01-29T05:42:19.774Z,9.70
2018-01-29T05:44:47.904Z,9.70
2018-01-29T05:47:27.713Z,9.70
2018-01-29T05:49:56.046Z,9.60
2018-01-29T05:52:23.592Z,9.60
2018-01-29T05:54:51.104Z,9.70
2018-01-29T05:57:19.410Z,9.60
2018-01-29T05:59:47.688Z,9.60
2018-01-29T06:02:16.591Z,9.70
2018-01-29T06:04:44.765Z,9.60
2018-01-29T06:07:13.657Z,9.70
2018-01-29T06:09:42.352Z,9.70
2018-01-29T06:12:11.849Z,9.60
2018-01-29T06:14:41.559Z,9.60
2018-01-29T06:17:10.491Z,9.60
2018-01-29T06:19:39.236Z,9.70
2018-01-29T06:22:16.966Z,9.60
2018-01-29T06:24:44.708Z,9.60
2018-01-29T06:27:13.101Z,9.60
2018-01-29T06:29:41.566Z,9.70
2018-01-29T06:32:09.636Z,9.70
2018-01-29T06:34:37.401Z,9.70
2018-01-29T06:37:06.058Z,9.70
2018-01-29T06:39:34.569Z,9.70
2018-01-29T06:42:02.101Z,9.70
2018-01-29T06:44:30.381Z,9.70
2018-01-29T06:46:58.765Z,9.70
2018-01-29T06:49:26.325Z,9.70
2018-01-29T06:51:54.088Z,9.70
2018-01-29T06:54:21.672Z,9.70
2018-01-29T06:56:49.193Z,9.70
2018-01-29T06:59:17.736Z,9.70
2018-01-29T07:01:45.813Z,9.70
2018-01-29T07:04:14.704Z,9.70
2018-01-29T07:06:42.262Z,9.70
2018-01-29T07:09:10.288Z,9.70
2018-01-29T07:11:38.276Z,9.60
2018-01-29T07:14:05.876Z,9.70
2018-01-29T07:16:33.496Z,9.60
2018-01-29T07:19:01.331Z,9.60
2018-01-29T07:21:30.462Z,9.60
2018-01-29T07:23:58.124Z,9.60
2018-01-29T07:26:25.642Z,9.70
2018-01-29T07:28:53.950Z,9.60
2018-01-29T07:31:21.465Z,9.60
2018-01-29T07:33:49.004Z,9.70
2018-01-29T07:36:16.548Z,9.60
2018-01-29T07:38:44.155Z,9.60
2018-01-29T07:41:12.058Z,9.60
2018-01-29T07:43:39.834Z,9.60
2018-01-29T07:46:07.497Z,9.60
2018-01-29T07:48:35.087Z,9.60
2018-01-29T07:51:02.748Z,9.70
2018-01-29T07:53:31.325Z,9.70
2018-01-29T07:55:59.756Z,9.70
2018-01-29T07:58:28.081Z,9.70
2018-01-29T08:00:55.648Z,9.70
2018-01-29T08:03:23.292Z,9.70
2018-01-29T08:05:51.029Z,9.70
2018-01-29T08:08:18.628Z,9.70
2018-01-29T08:10:46.485Z,9.80
2018-01-29T08:13:14.498Z,9.80
2018-01-29T08:15:43.238Z,9.80
2018-01-29T08:18:11.203Z,9.70
2018-01-29T08:20:39.277Z,9.70
2018-01-29T08:23:06.809Z,9.80
2018-01-29T08:25:35.105Z,9.80
2018-01-29T08:28:02.613Z,9.80
2018-01-29T08:30:30.962Z,9.80
2018-01-29T08:32:58.611Z,9.80
2018-01-29T08:35:26.147Z,9.90
2018-01-29T08:37:54.437Z,9.90
2018-01-29T08:40:21.945Z,9.80
2018-01-29T08:42:49.699Z,9.80
2018-01-29T08:45:17.385Z,9.90
2018-01-29T08:47:45.114Z,9.90
2018-01-29T08:50:12.807Z,9.90
2018-01-29T08:52:41.144Z,9.90
2018-01-29T08:55:09.193Z,9.90
2018-01-29T08:57:36.874Z,9.90
2018-01-29T09:00:04.739Z,9.90
2018-01-29T09:02:32.271Z,9.90
2018-01-29T09:04:59.901Z,9.90
2018-01-29T09:07:27.512Z,9.90
2018-01-29T09:09:55.040Z,10.00
2018-01-29T09:12:23.326Z,10.00
2018-01-29T09:14:51.658Z,10.00
2018-01-29T09:17:19.289Z,10.00
2018-01-29T09:19:47.380Z,10.00
2018-01-29T09:22:15.038Z,10.10
2018-01-29T09:24:42.901Z,10.10
2018-01-29T09:27:10.566Z,10.10
2018-01-29T09:29:38.213Z,10.10
2018-01-29T09:32:05.808Z,10.10
2018-01-29T09:34:33.462Z,10.10
2018-01-29T09:37:01.180Z,10.10
2018-01-29T09:39:28.793Z,10.10
2018-01-29T09:41:56.344Z,10.10
2018-01-29T09:44:23.909Z,10.10
2018-01-29T09:46:51.429Z,10.10
2018-01-29T09:49:19.724Z,10.10
2018-01-29T09:51:47.306Z,10.10
2018-01-29T09:54:15.145Z,10.20
2018-01-29T09:56:42.927Z,10.20
2018-01-29T09:59:10.802Z,10.10
2018-01-29T10:01:38.759Z,10.10
2018-01-29T10:04:06.489Z,10.10
2018-01-29T10:06:33.872Z,10.10
2018-01-29T10:09:01.953Z,10.10
2018-01-29T10:11:29.600Z,10.10
2018-01-29T10:13:57.163Z,10.10
2018-01-29T10:16:24.692Z,10.10
2018-01-29T10:18:52.284Z,10.10
2018-01-29T10:21:19.855Z,10.10
2018-01-29T10:23:47.500Z,10.10
2018-01-29T10:26:15.397Z,10.20
2018-01-29T10:28:43.355Z,10.20
2018-01-29T10:31:11.403Z,10.20
2018-01-29T10:33:39.265Z,10.30
2018-01-29T10:36:06.956Z,10.20
2018-01-29T10:38:35.253Z,10.30
2018-01-29T10:41:02.796Z,10.30
2018-01-29T10:43:30.332Z,10.30
2018-01-29T10:45:58.908Z,10.30
2018-01-29T10:48:27.188Z,10.30
2018-01-29T10:50:55.518Z,10.30
2018-01-29T10:53:23.049Z,10.30
2018-01-29T10:55:50.726Z,10.30
2018-01-29T10:58:18.585Z,10.30
2018-01-29T11:00:51.848Z,10.30
2018-01-29T11:03:20.534Z,10.20
2018-01-29T11:05:48.828Z,10.30
2018-01-29T11:08:16.820Z,10.30
2018-01-29T11:10:44.680Z,10.40
2018-01-29T11:13:12.754Z,10.30
2018-01-29T11:15:41.014Z,10.40
2018-01-29T11:18:09.317Z,10.30
2018-01-29T11:20:36.863Z,10.30
2018-01-29T11:23:04.409Z,10.30
2018-01-29T11:25:32.023Z,10.40
2018-01-29T11:27:59.638Z,10.30
2018-01-29T11:30:27.168Z,10.30
2018-01-29T11:32:54.682Z,10.30
2018-01-29T11:35:22.239Z,10.40
2018-01-29T11:37:49.764Z,10.50
2018-01-29T11:40:17.418Z,10.50
2018-01-29T11:42:45.906Z,10.50
2018-01-29T11:45:13.790Z,10.50
2018-01-29T11:47:41.458Z,10.50
2018-01-29T11:50:09.154Z,10.40
2018-01-29T11:52:37.537Z,10.50
2018-01-29T11:55:06.133Z,10.40
2018-01-29T11:57:34.249Z,10.40
2018-01-29T12:00:01.781Z,10.40
2018-01-29T12:02:30.057Z,10.30
2018-01-29T12:04:57.872Z,10.30
2018-01-29T12:07:25.441Z,10.40
2018-01-29T12:09:52.944Z,10.30
2018-01-29T12:12:21.567Z,10.30
2018-01-29T12:14:49.244Z,10.30
2018-01-29T12:17:17.475Z,10.30
2018-01-29T12:19:45.116Z,10.30
2018-01-29T12:22:12.831Z,10.30
2018-01-29T12:24:40.611Z,10.30
2018-01-29T12:27:08.565Z,10.30
2018-01-29T12:29:37.681Z,10.30
2018-01-29T12:32:05.323Z,10.20
2018-01-29T12:34:32.942Z,10.20
2018-01-29T12:37:00.756Z,10.20
2018-01-29T12:39:29.208Z,10.20
2018-01-29T12:41:57.823Z,10.20
2018-01-29T12:44:25.391Z,10.20
2018-01-29T12:46:52.909Z,10.20
2018-01-29T12:49:21.235Z,10.30
2018-01-29T12:51:49.187Z,10.30
2018-01-29T12:54:17.060Z,10.40
2018-01-29T12:56:44.823Z,10.40
2018-01-29T12:59:13.204Z,10.30
2018-01-29T13:01:41.072Z,10.30
2018-01-29T13:04:09.192Z,10.30
2018-01-29T13:06:36.900Z,10.30
2018-01-29T13:09:04.637Z,10.30
2018-01-29T13:11:33.528Z,10.30
2018-01-29T13:14:01.096Z,10.30
2018-01-29T13:16:28.656Z,10.20
2018-01-29T13:18:56.192Z,10.20
2018-01-29T13:21:23.732Z,10.20
2018-01-29T13:23:51.268Z,10.20
2018-01-29T13:26:19.223Z,10.10
2018-01-29T13:28:46.987Z,10.20
2018-01-29T13:31:14.852Z,10.20
2018-01-29T13:33:42.470Z,10.20
2018-01-29T13:36:10.794Z,10.20
2018-01-29T13:38:38.780Z,10.20
2018-01-29T13:41:07.449Z,10.30
2018-01-29T13:43:36.034Z,10.20
2018-01-29T13:46:04.007Z,10.20
2018-01-29T13:48:31.767Z,10.20
2018-01-29T13:50:59.286Z,10.10
2018-01-29T13:53:27.708Z,10.00
2018-01-29T13:55:55.244Z,10.00
2018-01-29T13:58:23.572Z,10.00
2018-01-29T14:00:51.115Z,10.00
2018-01-29T14:03:18.816Z,10.00
2018-01-29T14:05:46.941Z,10.00
2018-01-29T14:08:15.013Z,10.10
2018-01-29T14:10:42.896Z,10.10
2018-01-29T14:13:11.055Z,10.10
2018-01-29T14:15:40.214Z,10.10
2018-01-29T14:18:08.671Z,10.10
2018-01-29T14:20:37.432Z,10.10
2018-01-29T14:23:05.564Z,10.00
2018-01-29T14:25:33.666Z,10.10
2018-01-29T14:28:02.260Z,10.10
2018-01-29T14:30:29.916Z,10.10
2018-01-29T14:32:57.548Z,10.10
2018-01-29T14:35:25.984Z,10.00
2018-01-29T14:37:53.833Z,10.00
2018-01-29T14:40:21.519Z,9.90
2018-01-29T14:42:49.100Z,9.90
2018-01-29T14:45:17.346Z,9.90
2018-01-29T14:47:44.952Z,9.90
2018-01-29T14:50:13.150Z,10.00
2018-01-29T14:52:41.985Z,9.90
2018-01-29T14:55:10.813Z,10.00
2018-01-29T14:57:40.162Z,10.00
2018-01-29T15:00:08.724Z,9.90
2018-01-29T15:02:38.231Z,9.90
2018-01-29T15:05:05.895Z,9.90
2018-01-29T15:07:34.090Z,9.90
2018-01-29T15:10:01.748Z,9.90
2018-01-29T15:12:29.801Z,9.90
2018-01-29T15:14:57.388Z,9.90
2018-01-29T15:17:24.912Z,9.90
2018-01-29T15:19:52.849Z,10.00
2018-01-29T15:22:20.983Z,10.00
2018-01-29T15:24:49.314Z,10.00
2018-01-29T15:27:17.756Z,10.00
2018-01-29T15:29:45.793Z,10.00
2018-01-29T15:32:13.806Z,10.10
2018-01-29T15:34:41.836Z,10.10
2018-01-29T15:37:10.217Z,10.10
2018-01-29T15:39:37.880Z,10.10
2018-01-29T15:42:05.470Z,10.00
2018-01-29T15:44:33.222Z,10.00
2018-01-29T15:47:01.072Z,10.00
2018-01-29T15:49:28.612Z,10.00
2018-01-29T15:51:56.916Z,10.00
2018-01-29T15:54:24.663Z,10.00
2018-01-29T15:56:52.184Z,10.00
2018-01-29T15:59:20.078Z,10.00
2018-01-29T16:01:48.374Z,10.00
2018-01-29T16:04:16.534Z,9.90
2018-01-29T16:06:45.272Z,9.90
2018-01-29T16:09:14.300Z,9.90
2018-01-29T16:11:42.271Z,9.90
2018-01-29T16:14:10.255Z,9.90
2018-01-29T16:16:39.057Z,9.90
2018-01-29T16:19:08.056Z,10.00
2018-01-29T16:21:36.470Z,10.00
2018-01-29T16:24:04.741Z,10.00
2018-01-29T16:26:32.418Z,10.00
2018-01-29T16:29:00.344Z,10.00
2018-01-29T16:31:27.922Z,10.00
2018-01-29T16:33:55.458Z,10.00
2018-01-29T16:36:23.000Z,10.00
2018-01-29T16:38:51.280Z,10.00
2018-01-29T16:41:20.090Z,10.00
2018-01-29T16:43:48.480Z,10.10
2018-01-29T16:46:16.101Z,10.00
2018-01-29T16:48:44.920Z,9.90
2018-01-29T16:51:13.947Z,9.80
2018-01-29T16:53:42.283Z,9.80
2018-01-29T16:56:10.292Z,9.70
2018-01-29T16:58:38.203Z,9.70
2018-01-29T17:01:06.166Z,9.60
2018-01-29T17:03:34.786Z,9.50
2018-01-29T17:06:02.341Z,9.50
2018-01-29T17:08:30.420Z,9.40
2018-01-29T17:10:58.757Z,9.40
2018-01-29T17:13:27.053Z,9.40
2018-01-29T17:15:55.340Z,9.40
2018-01-29T17:18:22.873Z,9.30
2018-01-29T17:20:51.176Z,9.30
2018-01-29T17:23:18.880Z,9.30
2018-01-29T17:25:47.243Z,9.20
2018-01-29T17:28:15.714Z,9.10
2018-01-29T17:30:44.552Z,9.00
2018-01-29T17:33:14.488Z,9.00
2018-01-29T17:35:42.906Z,9.00
2018-01-29T17:38:11.688Z,9.00
2018-01-29T17:40:40.997Z,9.00
2018-01-29T17:43:11.030Z,8.90
2018-01-29T17:45:39.484Z,8.90
2018-01-29T17:48:07.766Z,8.90
2018-01-29T17:50:36.724Z,8.80
2018-01-29T17:53:04.688Z,8.80
2018-01-29T17:55:33.336Z,8.80
2018-01-29T17:58:01.869Z,8.70
2018-01-29T18:00:30.403Z,8.70
2018-01-29T18:02:58.848Z,8.70
2018-01-29T18:05:26.371Z,8.70
2018-01-29T18:07:54.684Z,8.60
2018-01-29T18:10:22.192Z,8.60
2018-01-29T18:12:49.716Z,8.60
2018-01-29T18:15:17.888Z,8.60
2018-01-29T18:17:45.859Z,8.60
2018-01-29T18:20:14.272Z,8.60
2018-01-29T18:22:42.511Z,8.60
2018-01-29T18:25:11.748Z,8.60
2018-01-29T18:27:39.683Z,8.60
2018-01-29T18:30:07.371Z,8.60
2018-01-29T18:32:35.728Z,8.60
2018-01-29T18:35:03.395Z,8.60
2018-01-29T18:37:31.586Z,8.60
2018-01-29T18:40:00.309Z,8.70
2018-01-29T18:42:28.597Z,8.70
2018-01-29T18:44:56.154Z,8.60
2018-01-29T18:47:24.439Z,8.70
2018-01-29T18:49:52.844Z,8.60
2018-01-29T18:52:20.430Z,8.60
2018-01-29T18:54:59.524Z,8.70
2018-01-29T18:57:27.079Z,8.60
2018-01-29T18:59:55.612Z,8.60
2018-01-29T19:02:23.168Z,8.60
2018-01-29T19:04:50.703Z,8.60
2018-01-29T19:07:19.206Z,8.60
2018-01-29T19:09:47.949Z,8.60
2018-01-29T19:12:15.752Z,8.70
2018-01-29T19:14:44.472Z,8.70
2018-01-29T19:17:13.011Z,8.60
2018-01-29T19:19:41.485Z,8.60
2018-01-29T19:22:10.071Z,8.70
2018-01-29T19:24:37.888Z,8.70
2018-01-29T19:27:05.477Z,8.70
2018-01-29T19:29:33.955Z,8.70
2018-01-29T19:32:02.359Z,8.70
2018-01-29T19:34:29.900Z,8.70
2018-01-29T19:36:57.478Z,8.60
2018-01-29T19:39:41.598Z,8.70
2018-01-29T19:42:10.008Z,8.60
2018-01-29T19:44:39.615Z,8.60
2018-01-29T19:47:08.608Z,8.50
2018-01-29T19:49:37.603Z,8.40
2018-01-29T19:52:05.268Z,8.40
2018-01-29T19:54:33.302Z,8.40
2018-01-29T19:57:01.588Z,8.20
2018-01-29T19:59:30.024Z,8.20
2018-01-29T20:01:57.561Z,8.20
2018-01-29T20:04:25.127Z,8.10
2018-01-29T20:06:52.700Z,8.10
2018-01-29T20:09:20.214Z,8.10
2018-01-29T20:11:48.545Z,8.00
2018-01-29T20:14:16.360Z,8.00
2018-01-29T20:16:44.455Z,7.90
2018-01-29T20:19:12.526Z,7.90
2018-01-29T20:21:40.389Z,7.90
2018-01-29T20:24:08.579Z,7.70
2018-01-29T20:26:36.125Z,7.70
2018-01-29T20:29:04.449Z,7.70
2018-01-29T20:31:32.455Z,7.60
2018-01-29T20:34:00.239Z,7.50
2018-01-29T20:36:27.797Z,7.50
2018-01-29T20:38:55.641Z,7.40
2018-01-29T20:41:23.964Z,7.50
2018-01-29T20:43:52.359Z,7.50
2018-01-29T20:46:19.873Z,7.50
2018-01-29T20:48:47.443Z,7.50
2018-01-29T20:51:15.106Z,7.50
2018-01-29T20:53:42.973Z,7.40
2018-01-29T20:56:11.250Z,7.40
2018-01-29T20:58:40.673Z,7.30
2018-01-29T21:01:09.235Z,7.20
2018-01-29T21:03:37.004Z,7.20
2018-01-29T21:06:05.586Z,7.30
2018-01-29T21:08:33.132Z,7.20
2018-01-29T21:11:00.708Z,7.20
2018-01-29T21:13:28.264Z,7.20
2018-01-29T21:15:55.802Z,7.10
2018-01-29T21:18:24.429Z,6.90
2018-01-29T21:20:51.943Z,6.90
2018-01-29T21:23:20.300Z,6.70
2018-01-29T21:25:47.884Z,6.70
2018-01-29T21:28:16.412Z,6.50
2018-01-29T21:30:44.084Z,6.50
2018-01-29T21:33:11.911Z,6.30
2018-01-29T21:35:39.512Z,6.10
2018-01-29T21:38:07.250Z,6.00
2018-01-29T21:40:34.868Z,6.00
2018-01-29T21:43:03.714Z,6.00
2018-01-29T21:45:33.123Z,5.90
2018-01-29T21:48:00.887Z,5.90
2018-01-29T21:50:29.721Z,5.80
2018-01-29T21:52:58.020Z,5.80
2018-01-29T21:55:25.555Z,5.90
2018-01-29T21:57:53.840Z,5.80
2018-01-29T22:00:22.128Z,5.90
2018-01-29T22:02:49.676Z,5.90
2018-01-29T22:05:17.380Z,6.00
2018-01-29T22:07:45.277Z,6.00
2018-01-29T22:10:13.322Z,6.00
2018-01-29T22:12:41.076Z,5.90
2018-01-29T22:15:08.720Z,5.80
2018-01-29T22:17:36.304Z,5.70
2018-01-29T22:20:03.854Z,5.50
2018-01-29T22:22:31.612Z,5.50
2018-01-29T22:24:59.177Z,5.50
2018-01-29T22:27:26.832Z,5.50
2018-01-29T22:29:54.364Z,5.40
2018-01-29T22:32:23.002Z,5.50
2018-01-29T22:34:50.530Z,5.40
2018-01-29T22:37:18.219Z,5.40
2018-01-29T22:39:45.795Z,5.40
2018-01-29T22:42:13.744Z,5.50
2018-01-29T22:44:41.764Z,5.70
2018-01-29T22:47:10.162Z,5.60
2018-01-29T22:49:37.902Z,5.60
2018-01-29T22:52:06.224Z,5.50
2018-01-29T22:54:33.886Z,5.50
2018-01-29T22:57:01.478Z,5.30
2018-01-29T22:59:29.043Z,5.20
2018-01-29T23:01:56.560Z,5.30
2018-01-29T23:04:24.128Z,5.20
2018-01-29T23:06:51.641Z,5.00
2018-01-29T23:09:19.189Z,5.00
2018-01-29T23:11:46.796Z,4.90
2018-01-29T23:14:21.563Z,4.90
2018-01-29T23:16:49.121Z,4.90
2018-01-29T23:19:17.033Z,4.80
2018-01-29T23:21:44.853Z,4.80
2018-01-29T23:24:12.774Z,4.70
2018-01-29T23:26:40.413Z,4.80
2018-01-29T23:29:08.236Z,4.80
2018-01-29T23:31:35.840Z,4.70
2018-01-29T23:34:04.185Z,4.70
2018-01-29T23:36:31.739Z,4.70
2018-01-29T23:38:59.449Z,4.70
2018-01-29T23:41:27.740Z,4.70
2018-01-29T23:43:56.054Z,4.70
2018-01-29T23:46:23.577Z,4.70
2018-01-29T23:48:51.881Z,4.80
2018-01-29T23:51:19.414Z,4.80
2018-01-29T23:53:47.713Z,5.00
2018-01-29T23:56:15.398Z,5.00
2018-01-29T23:58:44.061Z,4.60
